Latest Coastal Weather Observations for Yarram Airport

IDV60701

Issued at 1:21 pm EST Saturday 30 April 2016 (issued every 10 minutes, with the page automatically refreshed every 10 minutes)

About coastal observations | Map of coastal stations | Coastal observations for VIC | Marine services | Other Formats
Station Details ID: 085151 Name: YARRAM AIRPORT Lat: -38.56 Lon: 146.75 Height: 17.9 m
Data from the previous 72 hours. | See also: Recent months at Yarram Airport
Date/Time
EST
Temp

°C
Wind Pressure Rain
since 9am
mm
Weather Cloud Vis
km
Sea
Height
m
Swell
Dir
 
Speed
knots
Gust
knots
hPa Trend Height
m
Period
s
Dir
30/01:00pm 23.4 NW 13 19 1012.1 - 0.0 - - - - - - -
30/12:30pm 24.8 NNW 7 10 1012.4 - 0.0 - - - - - - -
30/12:00pm 24.7 N 8 12 1012.8 - 0.0 - - - - - - -
30/11:30am 24.4 N 8 11 1013.2 - 0.0 - - - - - - -
30/11:00am 22.8 N 9 11 1013.7 - 0.0 - - - - - - -
30/10:30am 23.2 N 8 12 1013.9 - 0.0 - - - - - - -
30/10:00am 22.2 NNE 5 9 1014.1 - 0.0 - - - - - - -
30/09:30am 18.9 CALM 0 0 1014.6 - 0.0 - - - - - - -
30/09:00am 16.7 NNE 2 3 1014.9 - 5.6 - - - - - - -
30/08:30am 14.5 N 3 4 1015.0 - 5.6 - - - - - - -
30/08:00am 12.1 N 3 5 1014.9 - 5.6 - - - - - - -
30/07:30am 10.4 CALM 0 3 1014.7 - 5.6 - - - - - - -
30/07:00am 10.3 NNE 3 4 1014.5 - 5.6 - - - - - - -
30/06:30am 9.8 NNE 5 7 1014.3 - 5.6 - - - - - - -
30/06:00am 9.2 NNE 5 5 1014.2 - 5.6 - - - - - - -
30/05:30am 10.3 CALM 0 0 1014.2 - 5.6 - - - - - - -
30/05:00am 10.9 NE 2 4 1014.2 - 5.6 - - - - - - -
30/04:30am 11.5 CALM 0 0 1013.9 - 5.6 - - - - - - -
30/04:00am 12.1 N 3 4 1013.8 - 5.6 - - - - - - -
30/03:30am 12.6 WNW 4 5 1013.8 - 5.6 - - - - - - -
30/03:00am 12.8 NW 1 4 1013.7 - 5.6 Recent precip. - - - - - -
30/02:30am 13.6 NW 2 6 1013.7 - 5.6 - - - - - - -
30/02:00am 13.8 NE 3 5 1013.9 - 5.4 - - - - - - -
30/01:30am 13.0 N 1 4 1013.8 - 5.4 - - - - - - -
30/01:00am 13.0 NNE 4 4 1013.8 - 5.4 - - - - - - -
30/12:30am 13.4 NNE 5 6 1013.8 - 5.4 - - - - - - -
30/12:00am 12.8 N 3 5 1013.7 - 5.4 - - - - - - -
 
Date/Time
EST
Temp

°C
Wind Pressure Rain
since 9am
mm
Weather Cloud Vis
km
Sea
Height
m
Swell
Dir
 
Speed
knots
Gust
knots
hPa Trend Height
m
Period
s
Dir
29/11:30pm 13.5 CALM 0 0 1014.1 - 5.4 - - - - - - -
29/11:00pm 14.4 CALM 0 0 1014.4 - 5.4 - - - - - - -
29/10:30pm 14.8 CALM 0 0 1014.6 - 5.4 - - - - - - -
29/10:00pm 15.1 W 3 4 1014.7 - 5.4 - - - - - - -
29/09:30pm 14.3 N 4 6 1014.5 - 5.4 - - - - - - -
29/09:00pm 14.9 NE 3 4 1014.0 - 5.4 - - - - - - -
29/08:30pm 15.5 NE 5 6 1013.8 - 5.4 - - - - - - -
29/08:00pm 15.7 E 4 6 1013.6 - 5.4 - - - - - - -
29/07:30pm 15.9 ENE 5 6 1013.5 - 5.4 - - - - - - -
29/07:00pm 16.0 E 5 6 1013.7 - 5.4 - - - - - - -
29/06:30pm 16.4 ENE 6 9 1013.4 - 5.4 - - - - - - -
29/06:00pm 16.5 NE 7 8 1013.1 - 5.4 - - - - - - -
29/05:30pm 16.6 ENE 5 7 1013.4 - 5.4 - - - - - - -
29/05:00pm 16.8 ESE 6 6 1013.6 - 5.4 - - - - - - -
29/04:30pm 17.3 CALM 0 0 1013.9 - 5.4 - - - - - - -
29/04:00pm 17.5 CALM 0 0 1014.2 - 5.0 - - - - - - -
29/03:30pm 17.6 CALM 0 0 1014.1 - 4.6 - - - - - - -
29/03:00pm 17.7 CALM 0 0 1014.1 - 4.0 Recent precip. - - - - - -
29/02:30pm 18.0 WNW 2 5 1013.7 - 3.4 - - - - - - -
29/02:00pm 18.1 NW 5 8 1013.5 - 2.2 - - - - - - -
29/01:30pm 18.7 NW 16 22 1013.7 - 1.0 - - - - - - -
29/01:20pm 20.3 NW 10 23 1013.6 - 0.0 - - - - - - -
29/01:00pm 20.1 WSW 4 7 1013.5 - 0.0 - - - - - - -
29/12:30pm 19.5 SW 8 10 1013.9 - 0.0 - - - - - - -
29/12:00pm 19.2 SSW 11 15 1014.0 - 0.0 - - - - - - -
29/11:30am 20.3 SSW 11 15 1014.2 - 0.0 - - - - - - -
29/11:00am 22.2 N 8 11 1013.8 - 0.0 - - - - - - -
29/10:30am 23.1 N 13 15 1013.9 - 0.0 - - - - - - -
29/10:00am 23.0 N 15 19 1014.2 - 0.0 - - - - - - -
29/09:30am 23.2 N 15 19 1014.6 - 0.0 - - - - - - -
29/09:00am 23.7 N 17 23 1015.0 - 0.0 - - - - - - -
29/08:30am 22.3 N 11 14 1014.9 - 0.0 - - - - - - -
29/08:00am 21.6 N 12 14 1015.0 - 0.0 - - - - - - -
29/07:30am 20.8 N 12 14 1015.0 - 0.0 - - - - - - -
29/07:00am 19.1 N 10 11 1014.8 - 0.0 - - - - - - -
29/06:30am 19.3 NNE 10 12 1015.0 - 0.0 - - - - - - -
29/06:00am 18.8 NNE 10 12 1015.2 - 0.0 - - - - - - -
29/05:30am 19.9 N 10 13 1015.4 - 0.0 - - - - - - -
29/05:00am 20.0 N 9 11 1015.5 - 0.0 - - - - - - -
29/04:30am 19.8 N 10 11 1015.3 - 0.0 - - - - - - -
29/04:00am 20.0 N 9 11 1015.4 - 0.0 - - - - - - -
29/03:30am 20.2 N 10 13 1015.5 - 0.0 - - - - - - -
29/03:00am 19.8 N 10 11 1015.8 - 0.0 - - - - - - -
29/02:30am 19.5 N 9 11 1015.9 - 0.0 - - - - - - -
29/02:00am 19.5 N 9 10 1016.2 - 0.0 - - - - - - -
29/01:30am 19.8 N 9 11 1016.3 - 0.0 - - - - - - -
29/01:00am 19.3 N 8 10 1016.5 - 0.0 - - - - - - -
29/12:30am 19.4 N 10 12 1016.6 - 0.0 - - - - - - -
29/12:00am 14.5 CALM 0 0 1016.8 - 0.0 - - - - - - -
 
Date/Time
EST
Temp

°C
Wind Pressure Rain
since 9am
mm
Weather Cloud Vis
km
Sea
Height
m
Swell
Dir
 
Speed
knots
Gust
knots
hPa Trend Height
m
Period
s
Dir
28/11:30pm 15.1 CALM 0 0 1017.2 - 0.0 - - - - - - -
28/11:00pm 14.9 CALM 0 0 1017.4 - 0.0 - - - - - - -
28/10:30pm 13.8 CALM 0 0 1017.8 - 0.0 - - - - - - -
28/10:00pm 15.9 NE 6 7 1018.1 - 0.0 - - - - - - -
28/09:30pm 16.4 NE 5 6 1018.3 - 0.0 - - - - - - -
28/09:00pm 15.9 NNE 6 7 1018.2 - 0.0 - - - - - - -
28/08:30pm 17.0 NE 7 8 1018.1 - 0.0 - - - - - - -
28/08:00pm 16.6 NE 5 6 1018.2 - 0.0 - - - - - - -
28/07:30pm 17.1 NE 5 6 1018.3 - 0.0 - - - - - - -
28/07:00pm 15.8 N 5 5 1018.1 - 0.0 - - - - - - -
28/06:30pm 18.0 ESE 5 6 1017.9 - 0.0 - - - - - - -
28/06:00pm 18.2 SSE 7 7 1018.0 - 0.0 - - - - - - -
28/05:30pm 19.6 SSE 7 9 1017.9 - 0.0 - - - - - - -
28/05:00pm 20.2 S 7 9 1017.9 - 0.0 - - - - - - -
28/04:30pm 20.0 SSW 1 4 1017.5 - 0.0 - - - - - - -
28/04:00pm 21.5 E 4 4 1017.4 - 0.0 - - - - - - -
28/03:30pm 21.8 E 3 5 1017.3 - 0.0 - - - - - - -
28/03:00pm 22.0 CALM 0 0 1017.1 - 0.0 - - - - - - -
28/02:30pm 22.3 CALM 0 0 1016.8 - 0.0 - - - - - - -
28/02:00pm 22.8 NW 1 4 1016.9 - 0.0 - - - - - - -
28/01:30pm 22.4 N 6 7 1017.1 - 0.0 - - - - - - -
28/01:00pm 23.0 N 5 7 1017.2 - 0.0 - - - - - - -
28/12:30pm 23.0 WNW 4 6 1017.4 - 0.0 - - - - - - -
28/12:00pm 23.4 NW 6 8 1017.6 - 0.0 - - - - - - -
28/11:30am 24.2 WNW 7 14 1017.8 - 0.0 - - - - - - -
28/11:00am 24.5 NW 7 11 1017.8 - 0.0 - - - - - - -
28/10:30am 24.4 N 10 14 1017.4 - 0.0 - - - - - - -
28/10:00am 23.3 NNE 8 11 1017.4 - 0.0 - - - - - - -
28/09:30am 24.2 N 7 10 1017.2 - 0.0 - - - - - - -
28/09:00am 23.3 NNW 8 10 1017.2 - 0.0 - - - - - - -
28/08:30am 23.3 NNW 10 15 1017.0 - 0.0 - - - - - - -
28/08:00am 22.4 NNW 8 11 1016.8 - 0.0 - - - - - - -
28/07:30am 21.4 N 9 15 1016.4 - 0.0 - - - - - - -
28/07:00am 21.2 NNE 4 5 1016.3 - 0.0 - - - - - - -
28/06:30am 22.4 NNW 6 7 1016.4 - 0.0 - - - - - - -
28/06:00am 20.9 NW 5 8 1016.3 - 0.0 - - - - - - -
28/05:30am 19.2 NNW 6 8 1016.3 - 0.0 - - - - - - -
28/05:00am 19.7 NNW 5 7 1016.0 - 0.0 - - - - - - -
28/04:30am 20.9 NNW 7 9 1015.8 - 0.0 - - - - - - -
28/04:00am 22.2 NNW 11 13 1015.4 - 0.0 - - - - - - -
28/03:30am 22.1 N 13 17 1015.3 - 0.0 - - - - - - -
28/03:00am 22.7 N 16 20 1015.1 - 0.0 - - - - - - -
28/02:30am 22.9 N 16 21 1015.3 - 0.0 - - - - - - -
28/02:00am 22.8 N 16 22 1015.5 - 0.0 - - - - - - -
28/01:30am 23.0 N 18 24 1015.5 - 0.0 - - - - - - -
28/01:00am 23.2 N 15 21 1015.5 - 0.0 - - - - - - -
28/12:30am 20.3 NNE 10 15 1015.7 - 0.0 - - - - - - -
28/12:00am 19.2 NE 4 6 1016.1 - 0.0 - - - - - - -
 
Date/Time
EST
Temp

°C
Wind Pressure Rain
since 9am
mm
Weather Cloud Vis
km
Sea
Height
m
Swell
Dir
 
Speed
knots
Gust
knots
hPa Trend Height
m
Period
s
Dir
27/11:30pm 20.5 N 10 14 1016.3 - 0.0 - - - - - - -
27/11:00pm 20.2 N 12 14 1016.5 - 0.0 - - - - - - -
27/10:30pm 20.6 N 11 13 1017.0 - 0.0 - - - - - - -
27/10:00pm 20.7 N 12 14 1017.1 - 0.0 - - - - - - -
27/09:30pm 20.9 N 11 13 1017.2 - 0.0 - - - - - - -
27/09:00pm 16.8 NE 4 6 1017.2 - 0.0 - - - - - - -
27/08:30pm 15.7 ESE 5 7 1017.2 - 0.0 - - - - - - -
27/08:00pm 16.9 NE 5 7 1017.4 - 0.0 - - - - - - -
27/07:30pm 17.7 E 5 6 1017.7 - 0.0 - - - - - - -
27/07:00pm 17.5 ENE 5 5 1017.7 - 0.0 - - - - - - -
27/06:30pm 16.2 NE 6 8 1017.6 - 0.0 - - - - - - -
27/06:00pm 16.4 NNE 7 8 1017.2 - 0.0 - - - - - - -
27/05:30pm 19.4 NE 5 7 1017.0 - 0.0 - - - - - - -
27/05:00pm 21.6 ENE 6 10 1016.7 - 0.0 - - - - - - -
27/04:30pm 23.8 N 8 11 1016.5 - 0.0 - - - - - - -
27/04:00pm 25.4 NE 7 11 1016.5 - 0.0 - - - - - - -
27/03:30pm 26.1 N 9 13 1016.6 - 0.0 - - - - - - -
27/03:00pm 25.7 N 7 9 1016.9 - 0.0 - - - - - - -
27/02:30pm 24.3 NNE 9 12 1017.0 - 0.0 - - - - - - -
27/02:00pm 24.8 N 10 15 1017.2 - 0.0 - - - - - - -
27/01:30pm 24.3 N 7 10 1017.5 - 0.0 - - - - - - -

Other Formats:

Comma delimited format used in spreadsheet applications
http://www.bom.gov.au/fwo/IDV60701/IDV60701.95890.axf

JavaScript Object Notation format (JSON) in row-major order
http://www.bom.gov.au/fwo/IDV60701/IDV60701.95890.json